sensor_id;sensor_type;location;lat;lon;timestamp;P1;durP1;ratioP1;P2;durP2;ratioP2
11344;SDS011;5727;42.600;23.028;2022-11-04T00:02:00;32.90;;;14.93;;
11344;SDS011;5727;42.600;23.028;2022-11-04T00:04:28;39.63;;;14.50;;
11344;SDS011;5727;42.600;23.028;2022-11-04T00:06:57;26.67;;;14.10;;
11344;SDS011;5727;42.600;23.028;2022-11-04T00:09:24;31.30;;;15.20;;
11344;SDS011;5727;42.600;23.028;2022-11-04T00:11:52;25.30;;;14.70;;
11344;SDS011;5727;42.600;23.028;2022-11-04T00:14:36;32.77;;;16.40;;
11344;SDS011;5727;42.600;23.028;2022-11-04T00:17:03;36.03;;;15.07;;
11344;SDS011;5727;42.600;23.028;2022-11-04T00:19:46;24.27;;;14.00;;
11344;SDS011;5727;42.600;23.028;2022-11-04T00:22:33;29.97;;;14.40;;
11344;SDS011;5727;42.600;23.028;2022-11-04T00:25:17;23.63;;;13.60;;
11344;SDS011;5727;42.600;23.028;2022-11-04T00:28:02;28.53;;;12.93;;
11344;SDS011;5727;42.600;23.028;2022-11-04T00:30:47;26.20;;;13.77;;
11344;SDS011;5727;42.600;23.028;2022-11-04T00:33:14;28.10;;;12.30;;
11344;SDS011;5727;42.600;23.028;2022-11-04T00:35:52;26.20;;;11.77;;
11344;SDS011;5727;42.600;23.028;2022-11-04T00:38:22;26.87;;;11.80;;
11344;SDS011;5727;42.600;23.028;2022-11-04T00:40:50;28.10;;;11.80;;
11344;SDS011;5727;42.600;23.028;2022-11-04T00:43:16;28.77;;;12.73;;
11344;SDS011;5727;42.600;23.028;2022-11-04T00:45:43;30.63;;;10.97;;
11344;SDS011;5727;42.600;23.028;2022-11-04T00:48:10;21.70;;;10.90;;
11344;SDS011;5727;42.600;23.028;2022-11-04T00:50:37;25.60;;;11.27;;
11344;SDS011;5727;42.600;23.028;2022-11-04T00:53:04;25.30;;;11.07;;
11344;SDS011;5727;42.600;23.028;2022-11-04T00:55:32;18.50;;;10.97;;
11344;SDS011;5727;42.600;23.028;2022-11-04T00:57:58;23.87;;;11.80;;
11344;SDS011;5727;42.600;23.028;2022-11-04T01:00:25;23.87;;;10.73;;
11344;SDS011;5727;42.600;23.028;2022-11-04T01:02:52;20.77;;;10.77;;
11344;SDS011;5727;42.600;23.028;2022-11-04T01:05:19;19.77;;;10.73;;
11344;SDS011;5727;42.600;23.028;2022-11-04T01:07:46;20.53;;;10.93;;
11344;SDS011;5727;42.600;23.028;2022-11-04T01:10:12;26.97;;;11.70;;
11344;SDS011;5727;42.600;23.028;2022-11-04T01:12:40;28.03;;;11.37;;
11344;SDS011;5727;42.600;23.028;2022-11-04T01:15:07;20.30;;;10.43;;
11344;SDS011;5727;42.600;23.028;2022-11-04T01:17:35;28.97;;;11.90;;
11344;SDS011;5727;42.600;23.028;2022-11-04T01:20:01;23.20;;;10.10;;
11344;SDS011;5727;42.600;23.028;2022-11-04T01:22:28;25.97;;;11.03;;
11344;SDS011;5727;42.600;23.028;2022-11-04T01:24:55;23.67;;;11.37;;
11344;SDS011;5727;42.600;23.028;2022-11-04T01:27:22;27.60;;;11.50;;
11344;SDS011;5727;42.600;23.028;2022-11-04T01:29:50;19.67;;;11.00;;
11344;SDS011;5727;42.600;23.028;2022-11-04T01:32:17;23.40;;;10.97;;
11344;SDS011;5727;42.600;23.028;2022-11-04T01:34:44;24.80;;;11.60;;
11344;SDS011;5727;42.600;23.028;2022-11-04T01:37:12;26.27;;;13.10;;
11344;SDS011;5727;42.600;23.028;2022-11-04T01:39:38;24.20;;;11.33;;
11344;SDS011;5727;42.600;23.028;2022-11-04T01:42:05;24.97;;;11.80;;
11344;SDS011;5727;42.600;23.028;2022-11-04T01:44:45;25.43;;;11.60;;
11344;SDS011;5727;42.600;23.028;2022-11-04T01:47:16;23.63;;;11.93;;
11344;SDS011;5727;42.600;23.028;2022-11-04T01:49:46;25.67;;;11.63;;
11344;SDS011;5727;42.600;23.028;2022-11-04T01:52:17;22.70;;;11.07;;
11344;SDS011;5727;42.600;23.028;2022-11-04T01:54:47;26.97;;;11.70;;
11344;SDS011;5727;42.600;23.028;2022-11-04T01:57:16;23.50;;;11.03;;
11344;SDS011;5727;42.600;23.028;2022-11-04T01:59:46;24.43;;;12.00;;
11344;SDS011;5727;42.600;23.028;2022-11-04T02:02:13;20.17;;;11.07;;
11344;SDS011;5727;42.600;23.028;2022-11-04T02:04:41;21.23;;;11.07;;
11344;SDS011;5727;42.600;23.028;2022-11-04T02:07:09;20.87;;;11.53;;
11344;SDS011;5727;42.600;23.028;2022-11-04T02:09:38;26.13;;;11.13;;
11344;SDS011;5727;42.600;23.028;2022-11-04T02:12:07;23.07;;;11.63;;
11344;SDS011;5727;42.600;23.028;2022-11-04T02:14:51;23.33;;;11.33;;
11344;SDS011;5727;42.600;23.028;2022-11-04T02:17:31;25.60;;;11.30;;
11344;SDS011;5727;42.600;23.028;2022-11-04T02:20:14;26.50;;;12.80;;
11344;SDS011;5727;42.600;23.028;2022-11-04T02:25:54;21.07;;;11.33;;
11344;SDS011;5727;42.600;23.028;2022-11-04T02:28:46;21.80;;;11.50;;
11344;SDS011;5727;42.600;23.028;2022-11-04T02:31:31;25.97;;;11.83;;
11344;SDS011;5727;42.600;23.028;2022-11-04T02:34:08;20.57;;;11.87;;
11344;SDS011;5727;42.600;23.028;2022-11-04T02:36:41;22.47;;;11.47;;
11344;SDS011;5727;42.600;23.028;2022-11-04T02:39:13;26.07;;;11.03;;
11344;SDS011;5727;42.600;23.028;2022-11-04T02:41:49;26.53;;;11.30;;
11344;SDS011;5727;42.600;23.028;2022-11-04T02:44:25;20.87;;;10.83;;
11344;SDS011;5727;42.600;23.028;2022-11-04T02:46:58;26.77;;;12.10;;
11344;SDS011;5727;42.600;23.028;2022-11-04T02:49:31;23.23;;;10.90;;
11344;SDS011;5727;42.600;23.028;2022-11-04T02:52:04;23.10;;;11.07;;
11344;SDS011;5727;42.600;23.028;2022-11-04T02:54:35;26.63;;;11.00;;
11344;SDS011;5727;42.600;23.028;2022-11-04T02:57:06;23.67;;;10.73;;
11344;SDS011;5727;42.600;23.028;2022-11-04T02:59:40;19.13;;;11.17;;
11344;SDS011;5727;42.600;23.028;2022-11-04T03:02:13;26.57;;;11.60;;
11344;SDS011;5727;42.600;23.028;2022-11-04T03:04:44;24.77;;;10.93;;
11344;SDS011;5727;42.600;23.028;2022-11-04T03:07:14;18.70;;;10.20;;
11344;SDS011;5727;42.600;23.028;2022-11-04T03:09:46;24.47;;;11.97;;
11344;SDS011;5727;42.600;23.028;2022-11-04T03:12:17;21.93;;;11.10;;
11344;SDS011;5727;42.600;23.028;2022-11-04T03:14:53;27.97;;;11.00;;
11344;SDS011;5727;42.600;23.028;2022-11-04T03:17:25;24.67;;;12.07;;
11344;SDS011;5727;42.600;23.028;2022-11-04T03:19:57;20.80;;;10.50;;
11344;SDS011;5727;42.600;23.028;2022-11-04T03:22:25;24.80;;;11.23;;
11344;SDS011;5727;42.600;23.028;2022-11-04T03:24:55;25.30;;;11.67;;
11344;SDS011;5727;42.600;23.028;2022-11-04T03:27:23;20.93;;;10.77;;
11344;SDS011;5727;42.600;23.028;2022-11-04T03:29:59;20.67;;;10.70;;
11344;SDS011;5727;42.600;23.028;2022-11-04T03:32:31;21.67;;;10.90;;
11344;SDS011;5727;42.600;23.028;2022-11-04T03:35:06;27.63;;;11.03;;
11344;SDS011;5727;42.600;23.028;2022-11-04T03:37:33;22.63;;;11.70;;
11344;SDS011;5727;42.600;23.028;2022-11-04T03:40:00;20.57;;;11.27;;
11344;SDS011;5727;42.600;23.028;2022-11-04T03:42:28;18.93;;;11.40;;
11344;SDS011;5727;42.600;23.028;2022-11-04T03:44:58;16.70;;;9.97;;
11344;SDS011;5727;42.600;23.028;2022-11-04T03:47:25;22.90;;;10.73;;
11344;SDS011;5727;42.600;23.028;2022-11-04T03:49:56;18.73;;;10.50;;
11344;SDS011;5727;42.600;23.028;2022-11-04T03:52:30;21.80;;;10.63;;
11344;SDS011;5727;42.600;23.028;2022-11-04T03:54:57;21.67;;;11.07;;
11344;SDS011;5727;42.600;23.028;2022-11-04T03:57:30;19.33;;;11.30;;
11344;SDS011;5727;42.600;23.028;2022-11-04T04:00:04;20.03;;;11.93;;
11344;SDS011;5727;42.600;23.028;2022-11-04T04:02:38;19.53;;;11.07;;
11344;SDS011;5727;42.600;23.028;2022-11-04T04:05:11;21.60;;;10.80;;
11344;SDS011;5727;42.600;23.028;2022-11-04T04:07:42;24.13;;;12.27;;
11344;SDS011;5727;42.600;23.028;2022-11-04T04:10:13;19.63;;;10.77;;
11344;SDS011;5727;42.600;23.028;2022-11-04T04:13:02;29.50;;;12.33;;
11344;SDS011;5727;42.600;23.028;2022-11-04T04:15:43;21.33;;;11.60;;
11344;SDS011;5727;42.600;23.028;2022-11-04T04:18:16;21.30;;;11.43;;
11344;SDS011;5727;42.600;23.028;2022-11-04T04:20:48;20.77;;;10.93;;
11344;SDS011;5727;42.600;23.028;2022-11-04T04:23:18;21.50;;;11.43;;
11344;SDS011;5727;42.600;23.028;2022-11-04T04:26:07;21.40;;;11.90;;
11344;SDS011;5727;42.600;23.028;2022-11-04T04:28:54;22.37;;;11.47;;
11344;SDS011;5727;42.600;23.028;2022-11-04T04:31:24;17.57;;;11.17;;
11344;SDS011;5727;42.600;23.028;2022-11-04T04:34:09;18.40;;;11.33;;
11344;SDS011;5727;42.600;23.028;2022-11-04T04:36:38;24.23;;;12.13;;
11344;SDS011;5727;42.600;23.028;2022-11-04T04:39:10;21.80;;;11.90;;
11344;SDS011;5727;42.600;23.028;2022-11-04T04:41:57;23.40;;;12.03;;
11344;SDS011;5727;42.600;23.028;2022-11-04T04:44:41;19.30;;;11.60;;
11344;SDS011;5727;42.600;23.028;2022-11-04T04:47:28;20.37;;;11.00;;
11344;SDS011;5727;42.600;23.028;2022-11-04T04:49:59;16.97;;;11.13;;
11344;SDS011;5727;42.600;23.028;2022-11-04T04:52:26;24.00;;;12.57;;
11344;SDS011;5727;42.600;23.028;2022-11-04T04:54:55;16.73;;;10.50;;
11344;SDS011;5727;42.600;23.028;2022-11-04T04:57:22;19.90;;;11.53;;
11344;SDS011;5727;42.600;23.028;2022-11-04T04:59:49;24.23;;;11.93;;
11344;SDS011;5727;42.600;23.028;2022-11-04T05:02:16;23.13;;;12.70;;
11344;SDS011;5727;42.600;23.028;2022-11-04T05:04:44;18.50;;;11.00;;
11344;SDS011;5727;42.600;23.028;2022-11-04T05:07:10;18.97;;;12.37;;
11344;SDS011;5727;42.600;23.028;2022-11-04T05:09:37;23.63;;;11.43;;
11344;SDS011;5727;42.600;23.028;2022-11-04T05:12:04;25.30;;;11.57;;
11344;SDS011;5727;42.600;23.028;2022-11-04T05:14:31;26.73;;;12.47;;
11344;SDS011;5727;42.600;23.028;2022-11-04T05:16:58;26.60;;;12.17;;
11344;SDS011;5727;42.600;23.028;2022-11-04T05:19:25;26.80;;;12.53;;
11344;SDS011;5727;42.600;23.028;2022-11-04T05:21:53;21.97;;;12.37;;
11344;SDS011;5727;42.600;23.028;2022-11-04T05:24:20;25.80;;;13.57;;
11344;SDS011;5727;42.600;23.028;2022-11-04T05:26:46;20.10;;;11.90;;
11344;SDS011;5727;42.600;23.028;2022-11-04T05:29:13;24.23;;;13.90;;
11344;SDS011;5727;42.600;23.028;2022-11-04T05:31:40;18.37;;;12.63;;
11344;SDS011;5727;42.600;23.028;2022-11-04T05:34:08;19.60;;;12.53;;
11344;SDS011;5727;42.600;23.028;2022-11-04T05:36:36;24.80;;;11.63;;
11344;SDS011;5727;42.600;23.028;2022-11-04T05:39:04;25.40;;;12.80;;
11344;SDS011;5727;42.600;23.028;2022-11-04T05:41:32;18.73;;;11.33;;
11344;SDS011;5727;42.600;23.028;2022-11-04T05:43:59;21.90;;;12.57;;
11344;SDS011;5727;42.600;23.028;2022-11-04T05:46:28;25.37;;;11.33;;
11344;SDS011;5727;42.600;23.028;2022-11-04T05:48:55;20.60;;;11.10;;
11344;SDS011;5727;42.600;23.028;2022-11-04T05:51:23;34.73;;;12.03;;
11344;SDS011;5727;42.600;23.028;2022-11-04T05:53:51;21.23;;;12.03;;
11344;SDS011;5727;42.600;23.028;2022-11-04T05:56:20;19.13;;;12.03;;
11344;SDS011;5727;42.600;23.028;2022-11-04T05:58:46;20.87;;;11.40;;
11344;SDS011;5727;42.600;23.028;2022-11-04T06:01:22;21.07;;;11.73;;
11344;SDS011;5727;42.600;23.028;2022-11-04T06:03:51;25.17;;;10.93;;
11344;SDS011;5727;42.600;23.028;2022-11-04T06:06:19;21.70;;;12.00;;
11344;SDS011;5727;42.600;23.028;2022-11-04T06:08:48;17.70;;;11.23;;
11344;SDS011;5727;42.600;23.028;2022-11-04T06:11:15;23.30;;;12.23;;
11344;SDS011;5727;42.600;23.028;2022-11-04T06:13:44;24.33;;;11.93;;
11344;SDS011;5727;42.600;23.028;2022-11-04T06:16:12;25.93;;;12.60;;
11344;SDS011;5727;42.600;23.028;2022-11-04T06:18:39;17.53;;;12.50;;
11344;SDS011;5727;42.600;23.028;2022-11-04T06:21:06;25.03;;;13.07;;
11344;SDS011;5727;42.600;23.028;2022-11-04T06:23:34;19.47;;;12.13;;
11344;SDS011;5727;42.600;23.028;2022-11-04T06:26:01;21.93;;;13.60;;
11344;SDS011;5727;42.600;23.028;2022-11-04T06:28:28;25.17;;;14.23;;
11344;SDS011;5727;42.600;23.028;2022-11-04T06:30:57;24.40;;;12.23;;
11344;SDS011;5727;42.600;23.028;2022-11-04T06:33:24;17.60;;;12.03;;
11344;SDS011;5727;42.600;23.028;2022-11-04T06:35:51;18.67;;;11.10;;
11344;SDS011;5727;42.600;23.028;2022-11-04T06:38:17;22.33;;;12.43;;
11344;SDS011;5727;42.600;23.028;2022-11-04T06:40:44;22.17;;;12.17;;
11344;SDS011;5727;42.600;23.028;2022-11-04T06:43:11;27.67;;;13.10;;
11344;SDS011;5727;42.600;23.028;2022-11-04T06:45:38;22.03;;;12.27;;
11344;SDS011;5727;42.600;23.028;2022-11-04T06:48:06;19.90;;;10.97;;
11344;SDS011;5727;42.600;23.028;2022-11-04T06:50:33;25.07;;;12.13;;
11344;SDS011;5727;42.600;23.028;2022-11-04T06:53:00;17.10;;;10.73;;
11344;SDS011;5727;42.600;23.028;2022-11-04T06:55:27;18.83;;;10.87;;
11344;SDS011;5727;42.600;23.028;2022-11-04T06:57:54;19.97;;;10.90;;
11344;SDS011;5727;42.600;23.028;2022-11-04T07:00:20;21.00;;;11.00;;
11344;SDS011;5727;42.600;23.028;2022-11-04T07:02:47;19.83;;;11.50;;
11344;SDS011;5727;42.600;23.028;2022-11-04T07:05:15;17.30;;;10.73;;
11344;SDS011;5727;42.600;23.028;2022-11-04T07:07:42;19.80;;;11.37;;
11344;SDS011;5727;42.600;23.028;2022-11-04T07:10:09;23.27;;;11.37;;
11344;SDS011;5727;42.600;23.028;2022-11-04T07:12:36;18.40;;;11.00;;
11344;SDS011;5727;42.600;23.028;2022-11-04T07:15:03;25.47;;;11.90;;
11344;SDS011;5727;42.600;23.028;2022-11-04T07:17:30;18.93;;;10.70;;
11344;SDS011;5727;42.600;23.028;2022-11-04T07:19:57;18.47;;;10.37;;
11344;SDS011;5727;42.600;23.028;2022-11-04T07:22:25;20.67;;;11.60;;
11344;SDS011;5727;42.600;23.028;2022-11-04T07:24:52;17.97;;;10.07;;
11344;SDS011;5727;42.600;23.028;2022-11-04T07:27:19;21.47;;;11.03;;
11344;SDS011;5727;42.600;23.028;2022-11-04T07:29:46;23.43;;;11.30;;
11344;SDS011;5727;42.600;23.028;2022-11-04T07:32:12;18.80;;;9.87;;
11344;SDS011;5727;42.600;23.028;2022-11-04T07:34:39;17.53;;;10.53;;
11344;SDS011;5727;42.600;23.028;2022-11-04T07:37:06;18.13;;;10.13;;
11344;SDS011;5727;42.600;23.028;2022-11-04T07:39:34;21.67;;;10.73;;
11344;SDS011;5727;42.600;23.028;2022-11-04T07:42:01;17.07;;;10.27;;
11344;SDS011;5727;42.600;23.028;2022-11-04T07:44:28;15.63;;;10.00;;
11344;SDS011;5727;42.600;23.028;2022-11-04T07:46:55;14.50;;;9.90;;
11344;SDS011;5727;42.600;23.028;2022-11-04T07:49:22;19.90;;;9.83;;
11344;SDS011;5727;42.600;23.028;2022-11-04T07:51:49;18.43;;;9.37;;
11344;SDS011;5727;42.600;23.028;2022-11-04T07:54:16;15.73;;;10.03;;
11344;SDS011;5727;42.600;23.028;2022-11-04T07:56:44;18.77;;;9.97;;
11344;SDS011;5727;42.600;23.028;2022-11-04T07:59:11;18.67;;;10.43;;
11344;SDS011;5727;42.600;23.028;2022-11-04T08:01:38;21.90;;;10.83;;
11344;SDS011;5727;42.600;23.028;2022-11-04T08:04:05;14.73;;;9.90;;
11344;SDS011;5727;42.600;23.028;2022-11-04T08:06:32;16.93;;;9.70;;
11344;SDS011;5727;42.600;23.028;2022-11-04T08:08:59;15.00;;;10.03;;
11344;SDS011;5727;42.600;23.028;2022-11-04T08:11:26;20.80;;;9.70;;
11344;SDS011;5727;42.600;23.028;2022-11-04T08:13:54;21.27;;;10.10;;
11344;SDS011;5727;42.600;23.028;2022-11-04T08:16:22;21.10;;;10.30;;
11344;SDS011;5727;42.600;23.028;2022-11-04T08:18:50;17.23;;;10.40;;
11344;SDS011;5727;42.600;23.028;2022-11-04T08:21:18;18.40;;;10.40;;
11344;SDS011;5727;42.600;23.028;2022-11-04T08:23:45;21.30;;;10.57;;
11344;SDS011;5727;42.600;23.028;2022-11-04T08:26:13;20.57;;;10.80;;
11344;SDS011;5727;42.600;23.028;2022-11-04T08:28:42;18.27;;;10.40;;
11344;SDS011;5727;42.600;23.028;2022-11-04T08:31:13;21.37;;;10.33;;
11344;SDS011;5727;42.600;23.028;2022-11-04T08:33:41;18.20;;;11.13;;
11344;SDS011;5727;42.600;23.028;2022-11-04T08:36:08;22.23;;;10.73;;
11344;SDS011;5727;42.600;23.028;2022-11-04T08:38:37;22.37;;;11.37;;
11344;SDS011;5727;42.600;23.028;2022-11-04T08:41:05;20.50;;;10.43;;
11344;SDS011;5727;42.600;23.028;2022-11-04T08:43:33;17.30;;;9.20;;
11344;SDS011;5727;42.600;23.028;2022-11-04T08:46:01;18.93;;;9.80;;
11344;SDS011;5727;42.600;23.028;2022-11-04T08:48:30;17.33;;;8.97;;
11344;SDS011;5727;42.600;23.028;2022-11-04T08:50:59;22.00;;;9.43;;
11344;SDS011;5727;42.600;23.028;2022-11-04T08:53:27;15.80;;;8.43;;
11344;SDS011;5727;42.600;23.028;2022-11-04T08:55:53;19.10;;;8.73;;
11344;SDS011;5727;42.600;23.028;2022-11-04T08:58:21;13.47;;;8.03;;
11344;SDS011;5727;42.600;23.028;2022-11-04T09:00:48;20.73;;;8.97;;
11344;SDS011;5727;42.600;23.028;2022-11-04T09:03:15;12.23;;;8.20;;
11344;SDS011;5727;42.600;23.028;2022-11-04T09:05:43;11.67;;;7.90;;
11344;SDS011;5727;42.600;23.028;2022-11-04T09:08:11;10.80;;;7.23;;
11344;SDS011;5727;42.600;23.028;2022-11-04T09:10:39;15.10;;;7.30;;
11344;SDS011;5727;42.600;23.028;2022-11-04T09:13:07;13.87;;;7.40;;
11344;SDS011;5727;42.600;23.028;2022-11-04T09:15:35;14.10;;;7.77;;
11344;SDS011;5727;42.600;23.028;2022-11-04T09:18:02;12.63;;;7.00;;
11344;SDS011;5727;42.600;23.028;2022-11-04T09:20:30;14.63;;;7.60;;
11344;SDS011;5727;42.600;23.028;2022-11-04T09:22:59;17.47;;;6.83;;
11344;SDS011;5727;42.600;23.028;2022-11-04T09:25:26;9.27;;;6.47;;
11344;SDS011;5727;42.600;23.028;2022-11-04T09:27:52;11.80;;;6.37;;
11344;SDS011;5727;42.600;23.028;2022-11-04T09:30:19;12.87;;;7.20;;
11344;SDS011;5727;42.600;23.028;2022-11-04T09:32:46;12.37;;;6.97;;
11344;SDS011;5727;42.600;23.028;2022-11-04T09:35:13;13.27;;;6.43;;
11344;SDS011;5727;42.600;23.028;2022-11-04T09:37:40;12.80;;;6.80;;
11344;SDS011;5727;42.600;23.028;2022-11-04T09:40:10;12.53;;;6.10;;
11344;SDS011;5727;42.600;23.028;2022-11-04T09:42:42;16.83;;;6.77;;
11344;SDS011;5727;42.600;23.028;2022-11-04T09:45:20;10.83;;;5.93;;
11344;SDS011;5727;42.600;23.028;2022-11-04T09:47:51;12.87;;;6.93;;
11344;SDS011;5727;42.600;23.028;2022-11-04T09:50:23;13.07;;;6.23;;
11344;SDS011;5727;42.600;23.028;2022-11-04T09:52:53;11.00;;;6.03;;
11344;SDS011;5727;42.600;23.028;2022-11-04T09:55:29;14.87;;;6.43;;
11344;SDS011;5727;42.600;23.028;2022-11-04T09:58:00;11.20;;;6.00;;
11344;SDS011;5727;42.600;23.028;2022-11-04T10:00:28;14.73;;;6.57;;
11344;SDS011;5727;42.600;23.028;2022-11-04T10:03:01;8.77;;;5.73;;
11344;SDS011;5727;42.600;23.028;2022-11-04T10:05:43;15.57;;;7.17;;
11344;SDS011;5727;42.600;23.028;2022-11-04T10:08:38;20.40;;;6.53;;
11344;SDS011;5727;42.600;23.028;2022-11-04T10:11:26;13.63;;;5.97;;
11344;SDS011;5727;42.600;23.028;2022-11-04T10:14:11;11.40;;;6.30;;
11344;SDS011;5727;42.600;23.028;2022-11-04T10:16:56;17.33;;;6.33;;
11344;SDS011;5727;42.600;23.028;2022-11-04T10:19:33;16.50;;;6.53;;
11344;SDS011;5727;42.600;23.028;2022-11-04T10:22:11;12.67;;;6.27;;
11344;SDS011;5727;42.600;23.028;2022-11-04T10:24:47;14.80;;;6.67;;
11344;SDS011;5727;42.600;23.028;2022-11-04T10:27:23;15.63;;;5.77;;
11344;SDS011;5727;42.600;23.028;2022-11-04T10:29:54;9.83;;;5.60;;
11344;SDS011;5727;42.600;23.028;2022-11-04T10:32:25;13.50;;;5.87;;
11344;SDS011;5727;42.600;23.028;2022-11-04T10:34:57;12.90;;;5.83;;
11344;SDS011;5727;42.600;23.028;2022-11-04T10:37:27;14.20;;;6.17;;
11344;SDS011;5727;42.600;23.028;2022-11-04T10:39:56;15.13;;;5.67;;
11344;SDS011;5727;42.600;23.028;2022-11-04T10:42:29;9.07;;;4.30;;
11344;SDS011;5727;42.600;23.028;2022-11-04T10:44:55;7.50;;;4.83;;
11344;SDS011;5727;42.600;23.028;2022-11-04T10:47:26;14.27;;;4.73;;
11344;SDS011;5727;42.600;23.028;2022-11-04T10:52:53;10.67;;;5.47;;
11344;SDS011;5727;42.600;23.028;2022-11-04T10:55:29;9.73;;;4.83;;
11344;SDS011;5727;42.600;23.028;2022-11-04T10:58:08;11.87;;;5.17;;
11344;SDS011;5727;42.600;23.028;2022-11-04T11:00:41;11.93;;;5.30;;
11344;SDS011;5727;42.600;23.028;2022-11-04T11:03:21;7.00;;;5.00;;
11344;SDS011;5727;42.600;23.028;2022-11-04T11:05:50;11.27;;;5.43;;
11344;SDS011;5727;42.600;23.028;2022-11-04T11:08:27;11.43;;;4.83;;
11344;SDS011;5727;42.600;23.028;2022-11-04T11:10:56;11.00;;;4.93;;
11344;SDS011;5727;42.600;23.028;2022-11-04T11:13:25;9.27;;;5.57;;
11344;SDS011;5727;42.600;23.028;2022-11-04T11:16:06;11.40;;;5.37;;
11344;SDS011;5727;42.600;23.028;2022-11-04T11:18:35;11.27;;;5.50;;
11344;SDS011;5727;42.600;23.028;2022-11-04T11:21:04;7.70;;;4.97;;
11344;SDS011;5727;42.600;23.028;2022-11-04T11:23:35;11.40;;;5.20;;
11344;SDS011;5727;42.600;23.028;2022-11-04T11:26:08;13.53;;;4.80;;
11344;SDS011;5727;42.600;23.028;2022-11-04T11:28:39;8.97;;;4.73;;
11344;SDS011;5727;42.600;23.028;2022-11-04T11:31:12;8.83;;;4.67;;
11344;SDS011;5727;42.600;23.028;2022-11-04T11:33:48;7.63;;;4.30;;
11344;SDS011;5727;42.600;23.028;2022-11-04T11:36:18;9.87;;;4.27;;
11344;SDS011;5727;42.600;23.028;2022-11-04T11:41:48;6.43;;;4.23;;
11344;SDS011;5727;42.600;23.028;2022-11-04T11:44:19;13.30;;;4.90;;
11344;SDS011;5727;42.600;23.028;2022-11-04T11:46:51;8.77;;;3.63;;
11344;SDS011;5727;42.600;23.028;2022-11-04T11:49:22;5.93;;;3.27;;
11344;SDS011;5727;42.600;23.028;2022-11-04T11:51:52;8.20;;;3.57;;
11344;SDS011;5727;42.600;23.028;2022-11-04T11:54:25;12.50;;;3.07;;
11344;SDS011;5727;42.600;23.028;2022-11-04T11:56:58;12.23;;;3.43;;
11344;SDS011;5727;42.600;23.028;2022-11-04T11:59:34;10.00;;;3.03;;
11344;SDS011;5727;42.600;23.028;2022-11-04T12:02:14;5.70;;;2.87;;
11344;SDS011;5727;42.600;23.028;2022-11-04T12:04:50;9.47;;;3.60;;
11344;SDS011;5727;42.600;23.028;2022-11-04T12:07:22;7.37;;;2.73;;
11344;SDS011;5727;42.600;23.028;2022-11-04T12:09:58;5.03;;;2.57;;
11344;SDS011;5727;42.600;23.028;2022-11-04T12:12:35;8.83;;;3.77;;
11344;SDS011;5727;42.600;23.028;2022-11-04T12:15:24;10.07;;;3.93;;
11344;SDS011;5727;42.600;23.028;2022-11-04T12:18:21;10.07;;;3.30;;
11344;SDS011;5727;42.600;23.028;2022-11-04T12:21:00;4.77;;;2.13;;
11344;SDS011;5727;42.600;23.028;2022-11-04T12:23:37;7.07;;;3.13;;
11344;SDS011;5727;42.600;23.028;2022-11-04T12:26:12;6.03;;;2.70;;
11344;SDS011;5727;42.600;23.028;2022-11-04T12:28:50;5.33;;;2.70;;
11344;SDS011;5727;42.600;23.028;2022-11-04T12:31:29;4.63;;;2.37;;
11344;SDS011;5727;42.600;23.028;2022-11-04T12:34:08;5.13;;;2.10;;
11344;SDS011;5727;42.600;23.028;2022-11-04T12:36:45;7.50;;;2.40;;
11344;SDS011;5727;42.600;23.028;2022-11-04T12:39:24;5.00;;;2.03;;
11344;SDS011;5727;42.600;23.028;2022-11-04T12:42:02;5.33;;;2.53;;
11344;SDS011;5727;42.600;23.028;2022-11-04T12:44:38;7.57;;;2.63;;
11344;SDS011;5727;42.600;23.028;2022-11-04T12:47:14;6.77;;;2.63;;
11344;SDS011;5727;42.600;23.028;2022-11-04T12:49:55;5.03;;;2.20;;
11344;SDS011;5727;42.600;23.028;2022-11-04T12:52:38;5.17;;;2.70;;
11344;SDS011;5727;42.600;23.028;2022-11-04T12:55:19;5.87;;;2.83;;
11344;SDS011;5727;42.600;23.028;2022-11-04T12:57:58;8.33;;;2.73;;
11344;SDS011;5727;42.600;23.028;2022-11-04T13:00:35;8.10;;;2.57;;
11344;SDS011;5727;42.600;23.028;2022-11-04T13:03:07;9.30;;;2.60;;
11344;SDS011;5727;42.600;23.028;2022-11-04T13:05:39;5.93;;;2.07;;
11344;SDS011;5727;42.600;23.028;2022-11-04T13:08:11;5.87;;;2.20;;
11344;SDS011;5727;42.600;23.028;2022-11-04T13:10:46;5.97;;;2.17;;
11344;SDS011;5727;42.600;23.028;2022-11-04T13:13:19;3.40;;;1.90;;
11344;SDS011;5727;42.600;23.028;2022-11-04T13:15:53;8.33;;;2.10;;
11344;SDS011;5727;42.600;23.028;2022-11-04T13:18:26;3.93;;;1.90;;
11344;SDS011;5727;42.600;23.028;2022-11-04T13:20:57;5.20;;;1.80;;
11344;SDS011;5727;42.600;23.028;2022-11-04T13:23:30;4.33;;;2.07;;
11344;SDS011;5727;42.600;23.028;2022-11-04T13:26:02;8.93;;;2.23;;
11344;SDS011;5727;42.600;23.028;2022-11-04T13:28:32;5.47;;;2.07;;
11344;SDS011;5727;42.600;23.028;2022-11-04T13:31:03;14.43;;;2.53;;
11344;SDS011;5727;42.600;23.028;2022-11-04T13:33:37;4.37;;;1.63;;
11344;SDS011;5727;42.600;23.028;2022-11-04T13:36:19;5.50;;;1.83;;
11344;SDS011;5727;42.600;23.028;2022-11-04T13:38:53;5.60;;;1.87;;
11344;SDS011;5727;42.600;23.028;2022-11-04T13:44:45;5.17;;;1.87;;
11344;SDS011;5727;42.600;23.028;2022-11-04T13:47:15;6.57;;;2.20;;
11344;SDS011;5727;42.600;23.028;2022-11-04T13:49:48;4.33;;;2.10;;
11344;SDS011;5727;42.600;23.028;2022-11-04T13:52:17;5.27;;;2.17;;
11344;SDS011;5727;42.600;23.028;2022-11-04T13:54:45;6.23;;;1.80;;
11344;SDS011;5727;42.600;23.028;2022-11-04T13:57:19;6.80;;;2.00;;
11344;SDS011;5727;42.600;23.028;2022-11-04T14:02:45;4.17;;;2.47;;
11344;SDS011;5727;42.600;23.028;2022-11-04T14:08:26;6.90;;;2.20;;
11344;SDS011;5727;42.600;23.028;2022-11-04T14:11:00;5.20;;;2.43;;
11344;SDS011;5727;42.600;23.028;2022-11-04T14:13:44;4.57;;;1.90;;
11344;SDS011;5727;42.600;23.028;2022-11-04T14:16:37;5.10;;;2.10;;
11344;SDS011;5727;42.600;23.028;2022-11-04T14:22:28;7.37;;;2.30;;
11344;SDS011;5727;42.600;23.028;2022-11-04T14:24:57;8.63;;;2.63;;
11344;SDS011;5727;42.600;23.028;2022-11-04T14:27:28;5.53;;;2.03;;
11344;SDS011;5727;42.600;23.028;2022-11-04T14:29:59;6.77;;;2.50;;
11344;SDS011;5727;42.600;23.028;2022-11-04T14:32:30;5.43;;;2.70;;
11344;SDS011;5727;42.600;23.028;2022-11-04T14:35:00;6.30;;;2.67;;
11344;SDS011;5727;42.600;23.028;2022-11-04T14:37:31;6.30;;;2.33;;
11344;SDS011;5727;42.600;23.028;2022-11-04T14:40:00;7.47;;;2.43;;
11344;SDS011;5727;42.600;23.028;2022-11-04T14:42:42;10.13;;;2.43;;
11344;SDS011;5727;42.600;23.028;2022-11-04T14:45:14;5.63;;;2.47;;
11344;SDS011;5727;42.600;23.028;2022-11-04T14:47:45;6.60;;;2.17;;
11344;SDS011;5727;42.600;23.028;2022-11-04T14:50:16;6.20;;;2.03;;
11344;SDS011;5727;42.600;23.028;2022-11-04T14:52:49;4.60;;;1.70;;
11344;SDS011;5727;42.600;23.028;2022-11-04T14:55:20;7.37;;;2.10;;
11344;SDS011;5727;42.600;23.028;2022-11-04T14:57:49;4.97;;;1.70;;
11344;SDS011;5727;42.600;23.028;2022-11-04T15:03:22;4.50;;;2.60;;
11344;SDS011;5727;42.600;23.028;2022-11-04T15:05:51;8.33;;;2.80;;
11344;SDS011;5727;42.600;23.028;2022-11-04T15:08:31;10.93;;;5.67;;
11344;SDS011;5727;42.600;23.028;2022-11-04T15:11:00;9.10;;;3.50;;
11344;SDS011;5727;42.600;23.028;2022-11-04T15:13:32;6.87;;;2.57;;
11344;SDS011;5727;42.600;23.028;2022-11-04T15:15:59;7.20;;;2.50;;
11344;SDS011;5727;42.600;23.028;2022-11-04T15:18:33;8.63;;;2.27;;
11344;SDS011;5727;42.600;23.028;2022-11-04T15:21:03;6.23;;;2.17;;